createdAt,value
2018-06-01T00:02:00.250Z,89.40
2018-06-01T00:04:27.441Z,90.00
2018-06-01T00:06:53.827Z,90.00
2018-06-01T00:09:20.166Z,90.30
2018-06-01T00:11:46.577Z,90.30
2018-06-01T00:14:13.574Z,90.30
2018-06-01T00:16:39.928Z,89.50
2018-06-01T00:19:06.326Z,89.50
2018-06-01T00:21:32.671Z,89.80
2018-06-01T00:23:59.986Z,90.10
2018-06-01T00:26:26.387Z,90.10
2018-06-01T00:28:53.469Z,89.50
2018-06-01T00:31:19.841Z,89.40
2018-06-01T00:33:46.170Z,90.30
2018-06-01T00:36:12.548Z,90.50
2018-06-01T00:38:38.970Z,90.50
2018-06-01T00:41:05.374Z,90.60
2018-06-01T00:43:31.718Z,90.80
2018-06-01T00:45:58.947Z,90.70
2018-06-01T00:48:25.169Z,90.60
2018-06-01T00:50:51.499Z,90.90
2018-06-01T00:53:17.858Z,91.00
2018-06-01T00:55:45.074Z,91.50
2018-06-01T00:58:11.464Z,91.50
2018-06-01T01:00:38.797Z,91.70
2018-06-01T01:03:05.207Z,92.30
2018-06-01T01:05:31.593Z,92.30
2018-06-01T01:07:58.022Z,92.40
2018-06-01T01:10:24.378Z,92.40
2018-06-01T01:12:50.705Z,92.50
2018-06-01T01:15:17.105Z,92.30
2018-06-01T01:17:43.473Z,92.20
2018-06-01T01:20:09.870Z,92.40
2018-06-01T01:22:36.193Z,92.50
2018-06-01T01:25:02.622Z,92.80
2018-06-01T01:27:28.980Z,92.90
2018-06-01T01:29:55.369Z,93.20
2018-06-01T01:32:21.794Z,93.00
2018-06-01T01:34:48.874Z,93.30
2018-06-01T01:37:24.472Z,93.20
2018-06-01T01:39:51.557Z,93.60
2018-06-01T01:42:18.045Z,93.60
2018-06-01T01:44:44.379Z,93.40
2018-06-01T01:47:11.479Z,93.70
2018-06-01T01:49:37.872Z,93.70
2018-06-01T01:52:05.000Z,93.90
2018-06-01T01:54:31.372Z,93.90
2018-06-01T01:56:57.773Z,94.10
2018-06-01T01:59:24.175Z,94.40
2018-06-01T02:01:50.528Z,94.40
2018-06-01T02:04:17.057Z,94.30
2018-06-01T02:06:43.400Z,94.40
2018-06-01T02:09:10.536Z,94.90
2018-06-01T02:11:36.872Z,94.50
2018-06-01T02:14:03.229Z,95.00
2018-06-01T02:16:30.638Z,95.50
2018-06-01T02:18:57.034Z,95.50
2018-06-01T02:21:23.358Z,96.50
2018-06-01T02:23:50.463Z,98.30
2018-06-01T02:26:16.796Z,98.30
2018-06-01T02:28:43.907Z,97.90
2018-06-01T02:31:10.309Z,97.90
2018-06-01T02:33:37.391Z,97.30
2018-06-01T02:36:03.766Z,97.70
2018-06-01T02:38:30.135Z,97.10
2018-06-01T02:40:56.592Z,96.80
2018-06-01T02:43:23.045Z,96.80
2018-06-01T02:45:49.415Z,97.00
2018-06-01T02:48:15.806Z,97.20
2018-06-01T02:50:42.133Z,97.10
2018-06-01T02:53:08.510Z,97.10
2018-06-01T02:55:34.886Z,97.30
2018-06-01T02:58:01.266Z,97.50
2018-06-01T03:00:28.335Z,98.50
2018-06-01T03:02:54.725Z,98.40
2018-06-01T03:05:21.815Z,98.30
2018-06-01T03:07:48.251Z,98.30
2018-06-01T03:10:14.606Z,98.70
2018-06-01T03:12:40.956Z,99.00
2018-06-01T03:15:07.346Z,99.40
2018-06-01T03:17:33.697Z,99.30
2018-06-01T03:20:00.117Z,99.40
2018-06-01T03:22:26.599Z,99.40
2018-06-01T03:24:52.990Z,99.30
2018-06-01T03:27:19.328Z,99.60
2018-06-01T03:29:48.537Z,99.90
2018-06-01T03:32:14.914Z,99.90
2018-06-01T03:34:41.970Z,99.90
2018-06-01T03:37:08.359Z,99.90
2018-06-01T03:39:34.747Z,99.90
2018-06-01T03:42:01.089Z,99.90
2018-06-01T03:44:27.453Z,99.90
2018-06-01T03:46:53.851Z,99.90
2018-06-01T03:49:20.218Z,99.90
2018-06-01T03:51:46.556Z,99.90
2018-06-01T03:54:12.934Z,99.90
2018-06-01T03:56:39.365Z,99.90
2018-06-01T03:59:05.777Z,99.90
2018-06-01T04:01:32.166Z,99.90
2018-06-01T04:04:00.012Z,99.90
2018-06-01T04:06:26.376Z,99.90
2018-06-01T04:08:53.518Z,99.90
2018-06-01T04:11:19.849Z,99.90
2018-06-01T04:13:46.985Z,99.90
2018-06-01T04:16:15.231Z,99.90
2018-06-01T04:18:41.709Z,99.90
2018-06-01T04:21:08.227Z,99.90
2018-06-01T04:23:34.581Z,99.90
2018-06-01T04:26:01.694Z,99.90
2018-06-01T04:28:28.064Z,99.90
2018-06-01T04:30:54.490Z,99.90
2018-06-01T04:33:21.610Z,99.90
2018-06-01T04:35:47.997Z,99.90
2018-06-01T04:38:14.381Z,99.90
2018-06-01T04:40:40.786Z,99.90
2018-06-01T04:43:07.157Z,99.90
2018-06-01T04:45:34.886Z,99.90
2018-06-01T04:48:01.348Z,99.90
2018-06-01T04:50:28.483Z,99.90
2018-06-01T04:52:54.818Z,99.90
2018-06-01T04:55:21.227Z,99.90
2018-06-01T04:57:47.582Z,99.90
2018-06-01T05:00:14.215Z,99.90
2018-06-01T05:02:40.630Z,99.90
2018-06-01T05:05:07.017Z,99.90
2018-06-01T05:07:33.361Z,99.90
2018-06-01T05:09:59.742Z,99.90
2018-06-01T05:12:27.547Z,99.90
2018-06-01T05:14:53.874Z,99.90
2018-06-01T05:17:20.239Z,99.90
2018-06-01T05:19:46.624Z,99.90
2018-06-01T05:22:13.721Z,99.90
2018-06-01T05:24:40.086Z,99.90
2018-06-01T05:27:06.494Z,99.90
2018-06-01T05:29:34.932Z,99.90
2018-06-01T05:32:01.276Z,99.90
2018-06-01T05:34:28.500Z,99.90
2018-06-01T05:36:55.572Z,99.90
2018-06-01T05:39:21.971Z,99.90
2018-06-01T05:41:49.100Z,99.90
2018-06-01T05:44:16.069Z,99.90
2018-06-01T05:46:43.193Z,99.90
2018-06-01T05:49:10.292Z,99.90
2018-06-01T05:51:36.699Z,99.90
2018-06-01T05:54:03.811Z,99.90
2018-06-01T05:56:30.198Z,99.90
2018-06-01T05:58:56.498Z,99.90
2018-06-01T06:01:23.597Z,99.90
2018-06-01T06:03:49.954Z,99.90
2018-06-01T06:06:16.939Z,99.90
2018-06-01T06:08:44.033Z,99.90
2018-06-01T06:11:10.348Z,99.90
2018-06-01T06:13:36.706Z,99.90
2018-06-01T06:16:03.038Z,99.90
2018-06-01T06:18:29.393Z,99.90
2018-06-01T06:20:55.725Z,99.90
2018-06-01T06:23:22.087Z,99.90
2018-06-01T06:25:48.441Z,99.90
2018-06-01T06:28:14.833Z,99.90
2018-06-01T06:30:41.163Z,99.90
2018-06-01T06:33:07.463Z,99.90
2018-06-01T06:35:34.591Z,99.90
2018-06-01T06:38:01.133Z,99.90
2018-06-01T06:40:27.475Z,99.90
2018-06-01T06:42:54.565Z,99.90
2018-06-01T06:45:20.930Z,99.90
2018-06-01T06:47:47.242Z,99.90
2018-06-01T06:50:13.606Z,99.90
2018-06-01T06:52:39.934Z,99.90
2018-06-01T06:55:06.324Z,99.90
2018-06-01T06:57:32.692Z,99.90
2018-06-01T06:59:59.004Z,99.90
2018-06-01T07:02:25.307Z,99.90
2018-06-01T07:04:51.708Z,99.90
2018-06-01T07:07:18.757Z,99.90
2018-06-01T07:09:45.802Z,99.90
2018-06-01T07:12:12.908Z,99.90
2018-06-01T07:14:39.352Z,99.90
2018-06-01T07:17:05.730Z,99.90
2018-06-01T07:19:32.773Z,99.90
2018-06-01T07:21:59.824Z,99.90
2018-06-01T07:24:26.192Z,99.90
2018-06-01T07:26:52.503Z,99.90
2018-06-01T07:29:19.725Z,99.90
2018-06-01T07:31:46.121Z,99.90
2018-06-01T07:34:12.465Z,99.90
2018-06-01T07:36:38.779Z,99.90
2018-06-01T07:39:05.142Z,99.90
2018-06-01T07:41:32.259Z,99.90
2018-06-01T07:43:58.642Z,99.90
2018-06-01T07:46:24.963Z,99.90
2018-06-01T07:48:52.053Z,99.90
2018-06-01T07:51:18.367Z,99.90
2018-06-01T07:53:44.710Z,99.90
2018-06-01T07:56:11.036Z,99.90
2018-06-01T07:58:37.402Z,99.90
2018-06-01T08:01:03.713Z,99.90
2018-06-01T08:03:30.095Z,99.90
2018-06-01T08:05:56.469Z,99.90
2018-06-01T08:08:22.830Z,99.90
2018-06-01T08:10:49.127Z,99.90
2018-06-01T08:13:15.509Z,99.90
2018-06-01T08:15:41.828Z,99.90
2018-06-01T08:18:09.154Z,99.90
2018-06-01T08:20:35.996Z,99.90
2018-06-01T08:23:02.301Z,99.90
2018-06-01T08:25:28.686Z,99.90
2018-06-01T08:27:55.768Z,99.90
2018-06-01T08:30:22.130Z,99.90
2018-06-01T08:32:48.479Z,99.90
2018-06-01T08:35:14.802Z,99.90
2018-06-01T08:37:46.380Z,99.90
2018-06-01T08:40:13.447Z,99.90
2018-06-01T08:42:39.859Z,99.90
2018-06-01T08:45:06.229Z,99.90
2018-06-01T08:47:32.578Z,99.90
2018-06-01T08:49:58.933Z,99.90
2018-06-01T08:52:26.083Z,99.90
2018-06-01T08:54:52.410Z,99.90
2018-06-01T08:57:18.716Z,99.90
2018-06-01T08:59:45.053Z,99.90
2018-06-01T09:02:11.415Z,99.90
2018-06-01T09:04:38.518Z,99.90
2018-06-01T09:07:04.842Z,99.90
2018-06-01T09:09:31.216Z,99.90
2018-06-01T09:11:57.526Z,99.90
2018-06-01T09:14:23.917Z,99.90
2018-06-01T09:16:50.239Z,99.90
2018-06-01T09:19:16.574Z,99.90
2018-06-01T09:21:42.938Z,99.90
2018-06-01T09:24:09.340Z,99.90
2018-06-01T09:26:35.703Z,99.90
2018-06-01T09:29:02.020Z,99.90
2018-06-01T09:31:28.405Z,99.90
2018-06-01T09:33:55.465Z,99.90
2018-06-01T09:36:21.783Z,99.90
2018-06-01T09:38:48.891Z,99.90
2018-06-01T09:41:15.211Z,99.90
2018-06-01T09:43:41.586Z,99.90
2018-06-01T09:46:08.666Z,99.90
2018-06-01T09:48:35.038Z,99.90
2018-06-01T09:51:01.350Z,99.90
2018-06-01T09:53:27.730Z,99.90
2018-06-01T09:55:54.811Z,99.90
2018-06-01T09:58:21.151Z,99.90
2018-06-01T10:00:53.844Z,99.90
2018-06-01T10:03:20.158Z,99.90
2018-06-01T10:05:46.519Z,99.90
2018-06-01T10:08:12.822Z,99.90
2018-06-01T10:10:39.196Z,99.90
2018-06-01T10:13:08.139Z,99.90
2018-06-01T10:15:34.593Z,99.90
2018-06-01T10:18:00.883Z,99.90
2018-06-01T10:20:27.263Z,99.90
2018-06-01T10:22:53.689Z,99.90
2018-06-01T10:25:20.052Z,99.90
2018-06-01T10:27:47.111Z,99.90
2018-06-01T10:30:13.420Z,99.90
2018-06-01T10:32:40.534Z,99.90
2018-06-01T10:35:06.840Z,99.90
2018-06-01T10:37:33.160Z,99.90
2018-06-01T10:39:59.522Z,99.90
2018-06-01T10:42:25.882Z,99.90
2018-06-01T10:44:52.241Z,99.90
2018-06-01T10:47:18.599Z,99.90
2018-06-01T10:49:44.958Z,99.90
2018-06-01T10:52:11.320Z,99.90
2018-06-01T10:54:38.360Z,99.90
2018-06-01T10:57:04.711Z,99.90
2018-06-01T10:59:31.058Z,99.90
2018-06-01T11:01:57.433Z,99.90
2018-06-01T11:04:23.757Z,99.90
2018-06-01T11:06:50.106Z,99.90
2018-06-01T11:09:17.206Z,99.90
2018-06-01T11:11:43.530Z,99.90
2018-06-01T11:14:09.879Z,99.90
2018-06-01T11:16:36.244Z,99.90
2018-06-01T11:19:02.558Z,99.90
2018-06-01T11:21:28.937Z,99.90
2018-06-01T11:23:55.254Z,99.90
2018-06-01T11:26:22.313Z,99.90
2018-06-01T11:28:48.697Z,99.90
2018-06-01T11:31:15.054Z,99.90
2018-06-01T11:33:42.203Z,99.90
2018-06-01T11:36:09.315Z,99.90
2018-06-01T11:38:36.381Z,99.90
2018-06-01T11:41:02.756Z,99.90
2018-06-01T11:43:29.101Z,99.90
2018-06-01T11:45:55.420Z,99.90
2018-06-01T11:48:21.778Z,99.90
2018-06-01T11:50:48.092Z,99.90
2018-06-01T11:53:14.455Z,99.90
2018-06-01T11:55:43.268Z,99.90
2018-06-01T11:58:10.312Z,99.90
2018-06-01T12:00:37.382Z,99.90
2018-06-01T12:03:03.747Z,99.90
2018-06-01T12:05:30.059Z,99.90
2018-06-01T12:07:56.417Z,99.90
2018-06-01T12:10:22.740Z,99.90
2018-06-01T12:12:49.109Z,99.90
2018-06-01T12:15:16.157Z,99.90
2018-06-01T12:17:43.619Z,99.90
2018-06-01T12:20:09.955Z,99.90
2018-06-01T12:22:36.328Z,99.90
2018-06-01T12:25:02.657Z,99.90
2018-06-01T12:27:28.963Z,99.90
2018-06-01T12:29:55.329Z,99.90
2018-06-01T12:32:21.639Z,99.90
2018-06-01T12:34:47.995Z,99.90
2018-06-01T12:37:15.789Z,99.90
2018-06-01T12:39:43.000Z,99.90
2018-06-01T12:42:09.302Z,99.90
2018-06-01T12:44:35.642Z,99.90
2018-06-01T12:47:02.079Z,99.90
2018-06-01T12:49:28.386Z,99.90
2018-06-01T12:51:54.681Z,99.90
2018-06-01T12:54:21.035Z,99.90
2018-06-01T12:56:47.346Z,99.90
2018-06-01T12:59:14.450Z,99.90
2018-06-01T13:01:40.745Z,99.90
2018-06-01T13:04:07.117Z,99.90
2018-06-01T13:06:33.445Z,99.90
2018-06-01T13:08:59.805Z,99.90
2018-06-01T13:11:26.123Z,99.90
2018-06-01T13:13:52.455Z,99.90
2018-06-01T13:16:18.899Z,99.90
2018-06-01T13:18:45.213Z,99.90
2018-06-01T13:21:11.573Z,99.90
2018-06-01T13:23:38.693Z,99.90
2018-06-01T13:26:05.007Z,99.90
2018-06-01T13:28:31.330Z,99.90
2018-06-01T13:30:57.692Z,99.90
2018-06-01T13:33:24.754Z,99.90
2018-06-01T13:35:51.964Z,99.90
2018-06-01T13:38:18.267Z,99.90
2018-06-01T13:40:44.586Z,99.90
2018-06-01T13:43:10.934Z,99.90
2018-06-01T13:45:37.233Z,99.90
2018-06-01T13:48:04.332Z,99.90
2018-06-01T13:50:30.642Z,99.90
2018-06-01T13:52:57.004Z,99.90
2018-06-01T13:55:23.356Z,99.90
2018-06-01T13:57:50.423Z,99.90
2018-06-01T14:00:16.773Z,99.90
2018-06-01T14:02:43.088Z,99.90
2018-06-01T14:05:09.471Z,99.90
2018-06-01T14:07:35.821Z,99.90
2018-06-01T14:10:02.191Z,99.90
2018-06-01T14:12:28.495Z,99.90
2018-06-01T14:14:55.593Z,99.90
2018-06-01T14:17:21.902Z,99.90
2018-06-01T14:19:48.457Z,99.90
2018-06-01T14:22:14.850Z,99.90
2018-06-01T14:24:41.955Z,99.90
2018-06-01T14:27:08.302Z,99.90
2018-06-01T14:29:35.421Z,99.90
2018-06-01T14:32:01.787Z,99.90
2018-06-01T14:34:29.473Z,99.90
2018-06-01T14:36:55.835Z,99.90
2018-06-01T14:39:22.165Z,99.90
2018-06-01T14:41:49.121Z,99.90
2018-06-01T14:44:15.469Z,99.90
2018-06-01T14:46:41.847Z,99.90
2018-06-01T14:49:08.167Z,99.90
2018-06-01T14:51:34.557Z,99.90
2018-06-01T14:54:00.858Z,99.90
2018-06-01T14:56:27.233Z,99.90
2018-06-01T14:58:55.982Z,99.90
2018-06-01T15:01:22.284Z,99.90
2018-06-01T15:03:48.645Z,99.90
2018-06-01T15:06:15.317Z,99.90
2018-06-01T15:08:42.381Z,99.90
2018-06-01T15:11:08.814Z,99.90
2018-06-01T15:13:35.209Z,99.90
2018-06-01T15:16:03.031Z,99.90
2018-06-01T15:18:29.401Z,99.90
2018-06-01T15:20:55.694Z,99.90
2018-06-01T15:23:22.033Z,99.90
2018-06-01T15:25:48.430Z,99.90
2018-06-01T15:28:14.731Z,99.90
2018-06-01T15:30:41.090Z,99.90
2018-06-01T15:33:08.126Z,99.40
2018-06-01T15:35:35.179Z,93.20
2018-06-01T15:38:02.290Z,93.40
2018-06-01T15:40:28.606Z,93.40
2018-06-01T15:42:55.043Z,90.80
2018-06-01T15:45:21.375Z,91.30
2018-06-01T15:47:47.753Z,89.70
2018-06-01T15:50:14.084Z,86.60
2018-06-01T15:52:40.385Z,86.30
2018-06-01T15:55:07.493Z,84.80
2018-06-01T15:57:33.810Z,84.60
2018-06-01T16:00:00.165Z,81.30
2018-06-01T16:02:26.510Z,78.00
2018-06-01T16:04:52.880Z,78.20
2018-06-01T16:07:19.979Z,74.20
2018-06-01T16:09:46.879Z,74.90
2018-06-01T16:12:13.265Z,70.40
2018-06-01T16:14:39.590Z,70.50
2018-06-01T16:17:05.943Z,72.40
2018-06-01T16:19:32.274Z,74.10
2018-06-01T16:21:59.369Z,75.80
2018-06-01T16:24:25.672Z,75.80
2018-06-01T16:26:52.779Z,75.20
2018-06-01T16:29:19.082Z,75.30
2018-06-01T16:31:45.440Z,75.80
2018-06-01T16:34:11.789Z,76.00
2018-06-01T16:36:39.798Z,80.80
2018-06-01T16:39:06.259Z,80.70
2018-06-01T16:41:32.591Z,85.70
2018-06-01T16:43:58.909Z,88.00
2018-06-01T16:46:25.279Z,88.20
2018-06-01T16:48:52.324Z,90.40
2018-06-01T16:51:19.425Z,90.50
2018-06-01T16:53:45.739Z,90.40
2018-06-01T16:56:12.102Z,91.40
2018-06-01T16:58:38.405Z,92.30
2018-06-01T17:01:04.754Z,92.90
2018-06-01T17:03:31.124Z,93.70
2018-06-01T17:05:58.189Z,93.90
2018-06-01T17:08:25.243Z,95.10
2018-06-01T17:10:51.608Z,95.10
2018-06-01T17:13:17.979Z,95.40
2018-06-01T17:15:45.199Z,96.70
2018-06-01T17:18:11.506Z,96.70
2018-06-01T17:20:37.859Z,97.40
2018-06-01T17:23:04.170Z,97.80
2018-06-01T17:25:30.530Z,99.10
2018-06-01T17:27:56.886Z,99.60
2018-06-01T17:30:23.985Z,99.90
2018-06-01T17:32:50.334Z,99.90
2018-06-01T17:35:16.699Z,99.90
2018-06-01T17:37:43.746Z,99.90
2018-06-01T17:40:10.113Z,99.90
2018-06-01T17:42:36.465Z,99.90
2018-06-01T17:45:03.208Z,99.90
2018-06-01T17:47:29.605Z,99.90
2018-06-01T17:49:55.952Z,99.90
2018-06-01T17:52:22.267Z,99.90
2018-06-01T17:54:48.576Z,99.90
2018-06-01T17:57:15.692Z,99.90
2018-06-01T17:59:42.049Z,99.90
2018-06-01T18:02:09.141Z,99.90
2018-06-01T18:04:36.109Z,99.90
2018-06-01T18:07:02.440Z,99.90
2018-06-01T18:09:28.751Z,99.90
2018-06-01T18:11:55.098Z,99.90
2018-06-01T18:14:21.475Z,99.90
2018-06-01T18:16:47.803Z,99.90
2018-06-01T18:19:14.166Z,99.90
2018-06-01T18:21:40.464Z,99.90
2018-06-01T18:24:06.848Z,99.90
2018-06-01T18:26:35.204Z,99.90
2018-06-01T18:29:02.322Z,99.90
2018-06-01T18:31:28.802Z,99.90
2018-06-01T18:33:56.107Z,99.90
2018-06-01T18:36:22.449Z,99.90
2018-06-01T18:38:48.767Z,99.90
2018-06-01T18:41:15.138Z,99.90
2018-06-01T18:43:41.468Z,99.90
2018-06-01T18:46:07.823Z,99.90
2018-06-01T18:48:34.901Z,99.90
2018-06-01T18:51:01.261Z,99.90
2018-06-01T18:53:27.582Z,99.90
2018-06-01T18:55:53.936Z,99.90
2018-06-01T18:58:20.240Z,99.90
2018-06-01T19:00:46.621Z,99.90
2018-06-01T19:03:13.693Z,99.90
2018-06-01T19:05:40.053Z,99.90
2018-06-01T19:08:06.423Z,99.90
2018-06-01T19:10:32.753Z,99.90
2018-06-01T19:12:59.168Z,99.90
2018-06-01T19:15:25.464Z,99.90
2018-06-01T19:17:51.829Z,99.90
2018-06-01T19:20:18.182Z,99.90
2018-06-01T19:22:44.546Z,99.90
2018-06-01T19:25:10.851Z,99.90
2018-06-01T19:27:37.198Z,99.90
2018-06-01T19:30:04.251Z,99.90
2018-06-01T19:32:31.959Z,99.90
2018-06-01T19:34:58.263Z,99.90
2018-06-01T19:37:24.632Z,99.90
2018-06-01T19:39:51.011Z,99.90
2018-06-01T19:42:17.374Z,99.90
2018-06-01T19:44:43.695Z,99.90
2018-06-01T19:47:10.009Z,99.90
2018-06-01T19:49:36.395Z,99.90
2018-06-01T19:52:03.623Z,99.90
2018-06-01T19:54:29.997Z,99.90
2018-06-01T19:56:57.048Z,99.90
2018-06-01T19:59:24.169Z,99.90
2018-06-01T20:01:51.248Z,99.90
2018-06-01T20:04:17.597Z,99.90
2018-06-01T20:06:43.959Z,99.90
2018-06-01T20:09:10.318Z,99.90
2018-06-01T20:11:37.603Z,99.90
2018-06-01T20:14:03.941Z,99.90
2018-06-01T20:16:30.269Z,99.90
2018-06-01T20:18:56.615Z,99.90
2018-06-01T20:21:23.039Z,99.90
2018-06-01T20:23:49.414Z,99.90
2018-06-01T20:26:16.055Z,99.90
2018-06-01T20:28:42.567Z,99.90
2018-06-01T20:31:08.886Z,99.90
2018-06-01T20:33:35.249Z,99.90
2018-06-01T20:36:01.553Z,99.90
2018-06-01T20:38:27.912Z,99.90
2018-06-01T20:40:54.954Z,99.90
2018-06-01T20:43:21.298Z,99.90
2018-06-01T20:45:47.637Z,99.90
2018-06-01T20:48:14.026Z,99.90
2018-06-01T20:50:40.372Z,99.90
2018-06-01T20:53:06.686Z,99.90
2018-06-01T20:55:33.064Z,99.90
2018-06-01T20:57:59.391Z,99.90
2018-06-01T21:00:26.497Z,99.90
2018-06-01T21:02:52.825Z,99.90
2018-06-01T21:05:19.202Z,99.90
2018-06-01T21:07:45.518Z,99.90
2018-06-01T21:10:12.572Z,99.90
2018-06-01T21:12:39.658Z,99.90
2018-06-01T21:15:05.992Z,99.90
2018-06-01T21:17:32.353Z,99.90
2018-06-01T21:19:58.685Z,99.90
2018-06-01T21:22:25.063Z,99.90
2018-06-01T21:24:51.427Z,99.90
2018-06-01T21:27:17.772Z,99.90
2018-06-01T21:29:44.368Z,99.90
2018-06-01T21:32:10.684Z,99.90
2018-06-01T21:34:37.042Z,99.90
2018-06-01T21:37:04.206Z,99.90
2018-06-01T21:39:31.457Z,99.90
2018-06-01T21:41:57.930Z,99.90
2018-06-01T21:44:25.219Z,99.90
2018-06-01T21:46:51.545Z,99.90
2018-06-01T21:49:17.891Z,99.90
2018-06-01T21:51:44.199Z,99.90
2018-06-01T21:54:10.554Z,99.90
2018-06-01T21:56:36.895Z,99.90
2018-06-01T21:59:03.278Z,99.90
2018-06-01T22:01:29.596Z,99.90
2018-06-01T22:03:56.701Z,99.90
2018-06-01T22:06:23.048Z,99.90
2018-06-01T22:08:49.360Z,99.90
2018-06-01T22:11:15.708Z,99.90
2018-06-01T22:13:42.033Z,99.90
2018-06-01T22:16:09.114Z,99.90
2018-06-01T22:18:35.472Z,99.90
2018-06-01T22:21:01.786Z,99.90
2018-06-01T22:23:28.118Z,99.90
2018-06-01T22:25:54.449Z,99.90
2018-06-01T22:28:20.818Z,99.90
2018-06-01T22:30:47.765Z,99.90
2018-06-01T22:33:14.087Z,99.90
2018-06-01T22:35:40.422Z,99.90
2018-06-01T22:38:06.753Z,99.90
2018-06-01T22:40:33.100Z,99.90
2018-06-01T22:42:59.427Z,99.90
2018-06-01T22:45:25.778Z,99.90
2018-06-01T22:47:52.894Z,99.90
2018-06-01T22:50:19.277Z,99.90
2018-06-01T22:52:45.603Z,99.90
2018-06-01T22:55:11.973Z,99.90
2018-06-01T22:57:38.241Z,99.90
2018-06-01T23:00:05.564Z,99.90
2018-06-01T23:02:31.824Z,99.90
2018-06-01T23:04:58.916Z,99.90
2018-06-01T23:07:26.118Z,99.90
2018-06-01T23:09:52.450Z,99.90
2018-06-01T23:12:18.760Z,99.90
2018-06-01T23:14:45.113Z,99.90
2018-06-01T23:17:11.441Z,99.90
2018-06-01T23:19:38.526Z,99.90
2018-06-01T23:22:04.852Z,99.90
2018-06-01T23:24:31.209Z,99.90
2018-06-01T23:26:57.528Z,99.90
2018-06-01T23:29:23.882Z,99.90
2018-06-01T23:31:50.186Z,99.90
2018-06-01T23:34:16.505Z,99.90
2018-06-01T23:36:42.824Z,99.90
2018-06-01T23:39:09.156Z,99.90
2018-06-01T23:41:35.494Z,99.90
2018-06-01T23:44:01.814Z,99.90
2018-06-01T23:46:28.203Z,99.90
2018-06-01T23:48:55.365Z,99.90
2018-06-01T23:51:21.699Z,99.90
2018-06-01T23:53:48.760Z,99.90
2018-06-01T23:56:15.981Z,99.90
2018-06-01T23:58:42.292Z,99.90
